createdAt,value
2018-05-17T00:02:34.871Z,94341.69
2018-05-17T00:17:34.537Z,94344.19
2018-05-17T00:32:37.027Z,94340.36
2018-05-17T00:47:34.871Z,94331.95
2018-05-17T01:02:34.434Z,94330.77
2018-05-17T01:17:36.858Z,94329.93
2018-05-17T01:32:35.693Z,94334.30
2018-05-17T01:47:35.179Z,94327.34
2018-05-17T02:02:35.294Z,94338.30
2018-05-17T02:17:35.443Z,94347.83
2018-05-17T02:32:37.529Z,94352.23
2018-05-17T02:47:34.475Z,94365.25
2018-05-17T03:02:34.537Z,94370.36
2018-05-17T03:17:36.518Z,94374.08
2018-05-17T03:32:35.186Z,94387.07
2018-05-17T03:47:36.811Z,94394.80
2018-05-17T04:02:51.655Z,94408.72
2018-05-17T04:17:41.686Z,94419.63
2018-05-17T04:32:35.215Z,94429.16
2018-05-17T04:47:40.245Z,94435.83
2018-05-17T05:02:37.254Z,94434.92
2018-05-17T05:17:35.448Z,94439.28
2018-05-17T05:32:34.732Z,94428.47
2018-05-17T05:47:40.598Z,94445.94
2018-05-17T06:02:35.127Z,94433.71
2018-05-17T06:17:34.498Z,94438.83
2018-05-17T06:32:34.893Z,94434.61
2018-05-17T06:47:34.867Z,94424.86
2018-05-17T07:02:34.824Z,94424.44
2018-05-17T07:17:34.947Z,94419.73
2018-05-17T07:32:35.125Z,94424.76
2018-05-17T07:47:35.189Z,94437.22
2018-05-17T08:02:35.172Z,94432.16
2018-05-17T08:17:35.191Z,94439.44
2018-05-17T08:32:35.667Z,94432.92
2018-05-17T08:47:35.437Z,94428.58
2018-05-17T09:02:36.376Z,94426.20
2018-05-17T09:17:35.941Z,94412.61
2018-05-17T09:32:34.785Z,94405.38
2018-05-17T09:47:34.748Z,94400.76
2018-05-17T10:02:37.661Z,94396.77
2018-05-17T10:17:34.746Z,94397.97
2018-05-17T10:32:35.109Z,94395.91
2018-05-17T10:47:35.071Z,94407.59
2018-05-17T11:02:35.066Z,94373.28
2018-05-17T11:17:34.541Z,94364.73
2018-05-17T11:32:35.852Z,94370.86
2018-05-17T11:47:37.398Z,94359.59
2018-05-17T12:02:35.307Z,94365.23
2018-05-17T12:17:35.377Z,94357.37
2018-05-17T12:32:36.575Z,94345.69
2018-05-17T12:47:34.696Z,94335.27
2018-05-17T13:02:34.542Z,94334.41
2018-05-17T13:17:38.900Z,94322.75
2018-05-17T13:32:34.867Z,94314.50
2018-05-17T13:47:35.786Z,94334.59
2018-05-17T14:02:36.543Z,94330.95
2018-05-17T14:17:35.647Z,94331.70
2018-05-17T14:32:35.024Z,94335.56
2018-05-17T14:47:35.194Z,94338.91
2018-05-17T15:02:34.662Z,94336.91
2018-05-17T15:17:35.092Z,94339.00
2018-05-17T15:32:34.545Z,94346.86
2018-05-17T15:47:36.974Z,94347.15
2018-05-17T16:02:34.449Z,94362.97
2018-05-17T16:17:34.251Z,94357.84
2018-05-17T16:32:34.563Z,94367.34
2018-05-17T16:47:34.558Z,94374.25
2018-05-17T17:02:34.560Z,94377.97
2018-05-17T17:17:37.483Z,94388.63
2018-05-17T17:32:35.910Z,94406.08
2018-05-17T17:47:34.810Z,94416.17
2018-05-17T18:02:34.762Z,94429.08
2018-05-17T18:17:34.981Z,94436.33
2018-05-17T18:32:35.412Z,94450.73
2018-05-17T18:47:37.402Z,94470.56
2018-05-17T19:32:36.433Z,94506.55
2018-05-17T19:47:53.841Z,94515.77
2018-05-17T20:02:39.627Z,94525.98
2018-05-17T20:17:34.401Z,94532.11
2018-05-17T20:32:35.272Z,94540.38
2018-05-17T20:47:34.974Z,94554.30
2018-05-17T21:02:36.923Z,94547.88
2018-05-17T21:17:36.650Z,94543.36
2018-05-17T21:32:35.047Z,94537.17
2018-05-17T21:47:35.031Z,94539.09
2018-05-17T22:02:35.214Z,94546.98
2018-05-17T22:17:37.086Z,94538.00
2018-05-17T22:32:36.290Z,94542.52
2018-05-17T22:47:34.377Z,94536.08
2018-05-17T23:02:34.450Z,94539.30
2018-05-17T23:17:36.219Z,94537.66
2018-05-17T23:32:34.642Z,94531.05
2018-05-17T23:47:36.548Z,94532.09
